Time;durP1;ratioP1;P1;durP2;ratioP2;P2;SDS_P1;SDS_P2;PMS_P1;PMS_P2;Temp;Humidity;BMP_temperature;BMP_pressure;BME280_temperature;BME280_humidity;BME280_pressure;Samples;Min_cycle;Max_cycle;Signal;HPM_P1;HPM_P2
2023/04/14 00:01:25;;;;;;;17.38;4.32;;;3.70;99.90;;;;;;6128553;23;20349;-83
2023/04/14 00:03:51;;;;;;;13.13;4.28;;;3.70;99.90;;;;;;6155460;23;20060;-84
2023/04/14 00:06:17;;;;;;;20.90;4.68;;;3.70;99.90;;;;;;6103906;23;20100;-84
2023/04/14 00:08:42;;;;;;;12.13;4.65;;;3.70;99.90;;;;;;6104495;23;20021;-84
2023/04/14 00:11:08;;;;;;;14.38;4.80;;;3.70;99.90;;;;;;6128235;23;20048;-84
2023/04/14 00:13:34;;;;;;;14.32;4.88;;;3.70;99.90;;;;;;6155009;23;20024;-83
2023/04/14 00:15:59;;;;;;;14.25;4.63;;;3.70;99.90;;;;;;6103901;23;20056;-84
2023/04/14 00:18:25;;;;;;;10.90;4.32;;;3.60;99.90;;;;;;6128177;23;20369;-84
2023/04/14 00:20:52;;;;;;;15.80;4.82;;;3.60;99.90;;;;;;6127838;23;20013;-84
2023/04/14 00:23:19;;;;;;;17.67;4.45;;;3.60;99.90;;;;;;6104063;23;20075;-84
2023/04/14 00:25:45;;;;;;;15.93;4.65;;;3.60;99.90;;;;;;6128687;23;20017;-84
2023/04/14 00:28:10;;;;;;;14.63;4.47;;;3.60;99.90;;;;;;6128711;23;20010;-83
2023/04/14 00:30:36;;;;;;;15.77;5.20;;;3.60;99.90;;;;;;6129056;23;20425;-84
2023/04/14 00:33:01;;;;;;;15.95;5.28;;;3.60;99.90;;;;;;6128146;23;20025;-84
2023/04/14 00:35:27;;;;;;;12.13;4.50;;;3.60;99.90;;;;;;6128082;23;20409;-84
2023/04/14 00:37:55;;;;;;;13.43;4.80;;;3.50;99.90;;;;;;6128144;23;20039;-84
2023/04/14 00:40:21;;;;;;;16.08;4.90;;;3.50;99.90;;;;;;6128741;23;20144;-84
2023/04/14 00:42:46;;;;;;;11.75;5.05;;;3.50;99.90;;;;;;6128148;23;20061;-84
2023/04/14 00:45:13;;;;;;;10.70;4.38;;;3.50;99.90;;;;;;6103958;23;20504;-83
2023/04/14 00:47:40;;;;;;;12.20;4.78;;;3.50;99.90;;;;;;6154517;23;20091;-84
2023/04/14 00:50:08;;;;;;;12.45;4.88;;;3.50;99.90;;;;;;6103042;23;20013;-85
2023/04/14 00:52:36;;;;;;;15.85;5.72;;;3.40;99.90;;;;;;6154947;23;20072;-83
2023/04/14 00:55:06;;;;;;;11.52;4.18;;;3.40;99.90;;;;;;6123121;23;20311;-84
2023/04/14 00:57:32;;;;;;;13.82;4.75;;;3.40;99.90;;;;;;6098680;23;20017;-83
2023/04/14 00:59:59;;;;;;;12.95;4.68;;;3.40;99.90;;;;;;6124092;23;20014;-83
2023/04/14 01:02:25;;;;;;;14.40;4.60;;;3.30;99.90;;;;;;6123405;23;20013;-84
2023/04/14 01:04:54;;;;;;;15.82;4.82;;;3.40;99.90;;;;;;6124357;23;20306;-85
2023/04/14 01:07:21;;;;;;;11.32;4.75;;;3.30;99.90;;;;;;6099183;23;20322;-83
2023/04/14 01:09:46;;;;;;;14.10;4.03;;;3.30;99.90;;;;;;6098853;23;20021;-84
2023/04/14 01:12:34;;;;;;;13.02;4.35;;;3.30;99.90;;;;;;6123499;23;20141;-84
2023/04/14 01:15:50;;;;;;;9.57;4.70;;;3.30;99.90;;;;;;6098580;23;20018;-83
2023/04/14 01:18:30;;;;;;;11.27;4.63;;;3.20;99.90;;;;;;6098106;23;20006;-84
2023/04/14 01:21:03;;;;;;;16.73;5.07;;;3.20;99.90;;;;;;6124955;23;20081;-84
2023/04/14 01:23:39;;;;;;;14.38;5.00;;;3.10;99.90;;;;;;6123323;23;20017;-84
2023/04/14 01:26:16;;;;;;;13.48;4.63;;;3.10;99.90;;;;;;6125068;23;20022;-84
2023/04/14 01:29:25;;;;;;;11.63;4.50;;;3.00;99.90;;;;;;6124738;23;20013;-83
2023/04/14 01:32:10;;;;;;;16.17;4.65;;;3.00;99.90;;;;;;6124826;23;20084;-84
2023/04/14 01:34:55;;;;;;;14.60;5.20;;;3.00;99.90;;;;;;6124426;23;20018;-84
2023/04/14 01:37:30;;;;;;;12.40;4.72;;;2.90;99.90;;;;;;6124738;23;20021;-83
2023/04/14 01:40:01;;;;;;;12.50;4.03;;;2.90;99.90;;;;;;6098619;23;20507;-84
2023/04/14 01:42:32;;;;;;;12.15;4.35;;;2.90;99.90;;;;;;6123328;23;20088;-84
2023/04/14 01:45:05;;;;;;;10.05;4.55;;;2.90;99.90;;;;;;6124789;23;20018;-84
2023/04/14 01:47:31;;;;;;;12.52;5.30;;;2.90;99.90;;;;;;6124874;23;20392;-84
2023/04/14 01:49:59;;;;;;;13.52;4.90;;;2.90;99.90;;;;;;6124900;23;20089;-84
2023/04/14 01:52:26;;;;;;;17.67;5.38;;;3.00;99.90;;;;;;6124928;23;20092;-84
2023/04/14 01:54:55;;;;;;;13.50;4.93;;;3.00;99.90;;;;;;6122788;23;20019;-84
2023/04/14 01:57:24;;;;;;;10.85;4.65;;;3.00;99.90;;;;;;6099134;23;20021;-83
2023/04/14 01:59:53;;;;;;;13.75;4.68;;;3.10;99.90;;;;;;6124773;23;20018;-85
2023/04/14 02:02:20;;;;;;;13.07;4.50;;;3.10;99.90;;;;;;6122550;23;20010;-84
2023/04/14 02:04:47;;;;;;;10.55;4.57;;;3.10;99.90;;;;;;6123095;23;20041;-85
2023/04/14 02:07:13;;;;;;;11.40;4.55;;;3.20;99.90;;;;;;6122836;23;20093;-85
2023/04/14 02:09:41;;;;;;;12.80;4.63;;;3.30;99.90;;;;;;6122880;23;20370;-85
2023/04/14 02:12:10;;;;;;;12.10;4.20;;;3.40;99.90;;;;;;6124738;23;20082;-85
2023/04/14 02:14:37;;;;;;;11.15;4.18;;;3.40;99.90;;;;;;6122849;23;20314;-84
2023/04/14 02:17:06;;;;;;;11.68;4.60;;;3.50;99.90;;;;;;6122815;23;20064;-84
2023/04/14 02:19:32;;;;;;;13.52;4.47;;;3.60;99.90;;;;;;6124307;23;20068;-85
2023/04/14 02:21:59;;;;;;;14.90;4.30;;;3.70;99.90;;;;;;6122888;23;20117;-84
2023/04/14 02:24:25;;;;;;;12.48;4.65;;;3.70;99.90;;;;;;6097660;23;20033;-85
2023/04/14 02:27:00;;;;;;;10.82;4.18;;;3.70;99.90;;;;;;6124652;23;20018;-85
2023/04/14 02:29:27;;;;;;;7.63;3.88;;;3.80;99.90;;;;;;6124784;23;20010;-84
2023/04/14 02:32:00;;;;;;;10.25;4.00;;;3.80;99.90;;;;;;6121880;23;20018;-85
2023/04/14 02:34:32;;;;;;;11.75;3.97;;;3.80;99.90;;;;;;6122608;23;20418;-84
2023/04/14 02:37:01;;;;;;;12.65;4.50;;;3.80;99.90;;;;;;6125089;23;20129;-85
2023/04/14 02:39:33;;;;;;;8.70;4.15;;;3.90;99.90;;;;;;6122766;23;20021;-84
2023/04/14 02:42:04;;;;;;;13.90;4.10;;;3.80;99.90;;;;;;6123760;23;20081;-85
2023/04/14 02:44:34;;;;;;;15.27;4.45;;;3.90;99.90;;;;;;6124776;23;20014;-85
2023/04/14 02:47:06;;;;;;;10.30;4.22;;;3.90;99.90;;;;;;6123525;23;20022;-83
2023/04/14 02:49:38;;;;;;;12.98;4.90;;;3.90;99.90;;;;;;6124330;23;20046;-83
2023/04/14 02:52:06;;;;;;;9.40;3.70;;;3.90;99.90;;;;;;6124547;23;20437;-83
2023/04/14 02:54:36;;;;;;;9.35;4.50;;;4.00;99.90;;;;;;6124066;23;20021;-83
2023/04/14 02:57:03;;;;;;;9.27;4.05;;;4.00;99.90;;;;;;6100155;23;20014;-83
2023/04/14 02:59:30;;;;;;;9.77;4.20;;;4.00;99.90;;;;;;6100366;23;20014;-83
2023/04/14 03:02:00;;;;;;;7.05;3.50;;;4.00;99.90;;;;;;6125688;23;20006;-84
2023/04/14 03:04:30;;;;;;;10.68;3.63;;;4.10;99.90;;;;;;6125118;23;20037;-84
2023/04/14 03:06:57;;;;;;;11.77;4.10;;;4.10;99.90;;;;;;6124033;23;20021;-84
2023/04/14 03:09:24;;;;;;;11.57;4.43;;;4.10;99.90;;;;;;6100043;23;20084;-84
2023/04/14 03:11:51;;;;;;;10.30;3.85;;;4.10;99.90;;;;;;6124451;23;20010;-83
2023/04/14 03:14:18;;;;;;;9.82;4.18;;;4.20;99.90;;;;;;6099708;23;20022;-84
2023/04/14 03:16:44;;;;;;;11.13;4.25;;;4.20;99.90;;;;;;6100320;23;20018;-84
2023/04/14 03:19:12;;;;;;;8.68;3.63;;;4.20;99.90;;;;;;6126558;23;20371;-83
2023/04/14 03:21:38;;;;;;;10.35;3.78;;;4.20;99.90;;;;;;6123951;23;20045;-84
2023/04/14 03:24:05;;;;;;;10.85;4.03;;;4.20;99.90;;;;;;6126024;23;20033;-84
2023/04/14 03:26:33;;;;;;;9.25;3.47;;;4.20;99.90;;;;;;6124638;23;20049;-84
2023/04/14 03:29:02;;;;;;;9.80;3.30;;;4.30;99.90;;;;;;6124030;23;20337;-84
2023/04/14 03:31:35;;;;;;;12.23;4.18;;;4.30;99.90;;;;;;6126275;23;20018;-84
2023/04/14 03:34:03;;;;;;;10.90;3.65;;;4.30;99.90;;;;;;6124567;23;20018;-84
2023/04/14 03:36:30;;;;;;;12.98;3.55;;;4.30;99.90;;;;;;6124497;23;20399;-84
2023/04/14 03:38:58;;;;;;;9.40;3.60;;;4.30;99.90;;;;;;6124344;23;20464;-83
2023/04/14 03:41:25;;;;;;;10.75;4.03;;;4.30;99.90;;;;;;6125830;23;20471;-83
2023/04/14 03:43:55;;;;;;;10.43;3.78;;;4.30;99.90;;;;;;6099330;23;20090;-82
2023/04/14 03:46:25;;;;;;;10.07;4.10;;;4.20;99.90;;;;;;6124692;23;20053;-83
2023/04/14 03:48:52;;;;;;;12.55;4.25;;;4.20;99.90;;;;;;6124116;23;20479;-84
2023/04/14 03:51:21;;;;;;;14.07;4.72;;;4.20;99.90;;;;;;6125698;23;20439;-84
2023/04/14 03:53:48;;;;;;;14.20;4.47;;;4.20;99.90;;;;;;6127521;23;20029;-84
2023/04/14 03:56:14;;;;;;;10.35;4.60;;;4.20;99.90;;;;;;6155062;23;20018;-82
2023/04/14 03:58:48;;;;;;;9.20;4.15;;;4.10;99.90;;;;;;6154916;23;20341;-82
2023/04/14 04:01:13;;;;;;;13.05;4.50;;;4.10;99.90;;;;;;6154967;23;20005;-83
2023/04/14 04:03:41;;;;;;;11.38;4.40;;;4.10;99.90;;;;;;6128444;23;20389;-83
2023/04/14 04:06:07;;;;;;;8.95;3.90;;;4.00;99.90;;;;;;6104369;23;20013;-83
2023/04/14 04:08:34;;;;;;;11.98;4.10;;;4.00;99.90;;;;;;6155198;23;20340;-84
2023/04/14 04:11:04;;;;;;;8.80;4.00;;;3.90;99.90;;;;;;6128158;23;20510;-83
2023/04/14 04:13:32;;;;;;;11.38;4.60;;;3.80;99.90;;;;;;6153994;23;20010;-83
2023/04/14 04:15:58;;;;;;;10.80;4.47;;;3.80;99.90;;;;;;6128598;23;20013;-84
2023/04/14 04:18:26;;;;;;;10.23;4.22;;;3.70;99.90;;;;;;6154973;23;20504;-83
2023/04/14 04:20:52;;;;;;;8.45;4.40;;;3.70;99.90;;;;;;6103857;23;20092;-84
2023/04/14 04:23:20;;;;;;;9.13;3.97;;;3.70;99.90;;;;;;6128342;23;20179;-83
2023/04/14 04:25:47;;;;;;;8.82;4.05;;;3.60;99.90;;;;;;6154896;23;20013;-83
2023/04/14 04:28:12;;;;;;;10.10;4.35;;;3.60;99.90;;;;;;6154456;23;20081;-83
2023/04/14 04:30:42;;;;;;;9.10;4.07;;;3.60;99.90;;;;;;6154820;23;20412;-83
2023/04/14 04:33:09;;;;;;;10.55;4.32;;;3.50;99.90;;;;;;6128191;23;20010;-83
2023/04/14 04:35:35;;;;;;;11.05;4.20;;;3.50;99.90;;;;;;6128709;23;20040;-84
2023/04/14 04:38:00;;;;;;;10.57;4.47;;;3.40;99.90;;;;;;6104023;23;20009;-83
2023/04/14 04:40:26;;;;;;;9.40;4.18;;;3.40;99.90;;;;;;6104233;23;20459;-83
2023/04/14 04:42:52;;;;;;;11.88;4.78;;;3.40;99.90;;;;;;6103711;23;20009;-84
2023/04/14 04:45:53;;;;;;;13.10;4.75;;;3.40;99.90;;;;;;6154458;23;20352;-84
2023/04/14 04:48:18;;;;;;;11.95;4.78;;;3.40;99.90;;;;;;6128099;23;20021;-84
2023/04/14 04:50:44;;;;;;;11.45;4.28;;;3.60;99.90;;;;;;6127862;23;20021;-84
2023/04/14 04:53:11;;;;;;;10.95;4.50;;;3.30;99.90;;;;;;6103524;23;20230;-83
2023/04/14 04:55:36;;;;;;;10.02;4.82;;;3.30;99.90;;;;;;6153358;23;20021;-83
2023/04/14 04:58:02;;;;;;;10.68;4.55;;;3.30;99.90;;;;;;6128231;23;20005;-84
2023/04/14 05:00:28;;;;;;;10.27;4.18;;;3.30;99.90;;;;;;6153885;23;20455;-83
2023/04/14 05:02:53;;;;;;;13.63;4.78;;;3.40;99.90;;;;;;6153588;23;20137;-83
2023/04/14 05:05:19;;;;;;;11.15;4.93;;;3.40;99.90;;;;;;6127518;23;20021;-83
2023/04/14 05:07:44;;;;;;;9.23;4.22;;;3.50;99.90;;;;;;6127371;23;20080;-84
2023/04/14 05:10:11;;;;;;;9.85;4.47;;;3.60;99.90;;;;;;6127025;23;20014;-83
2023/04/14 05:12:36;;;;;;;11.07;5.05;;;3.60;99.90;;;;;;6127627;23;20059;-84
2023/04/14 05:15:02;;;;;;;9.93;5.03;;;3.60;99.90;;;;;;6154232;23;20044;-84
2023/04/14 05:17:28;;;;;;;11.40;5.13;;;3.60;99.90;;;;;;6127527;23;20013;-84
2023/04/14 05:19:53;;;;;;;9.55;5.45;;;3.70;99.90;;;;;;6127943;23;20388;-83
2023/04/14 05:22:19;;;;;;;9.73;4.70;;;3.70;99.90;;;;;;6128414;23;20080;-84
2023/04/14 05:24:49;;;;;;;12.45;5.43;;;3.70;99.90;;;;;;6102987;23;20014;-84
2023/04/14 05:27:15;;;;;;;11.40;5.22;;;3.80;99.90;;;;;;6154222;23;20017;-83
2023/04/14 05:29:41;;;;;;;12.73;5.70;;;3.70;99.90;;;;;;6127928;23;20010;-84
2023/04/14 05:32:06;;;;;;;9.38;5.90;;;3.70;99.90;;;;;;6154221;23;20010;-84
2023/04/14 05:34:32;;;;;;;11.43;5.38;;;3.70;99.90;;;;;;6103128;23;20017;-83
2023/04/14 05:36:57;;;;;;;16.30;5.60;;;3.80;99.90;;;;;;6128105;23;20013;-84
2023/04/14 05:39:23;;;;;;;12.57;5.70;;;3.80;99.90;;;;;;6153693;23;20021;-84
2023/04/14 05:41:48;;;;;;;11.27;5.68;;;3.90;99.90;;;;;;6128540;23;20017;-83
2023/04/14 05:44:14;;;;;;;13.20;6.00;;;3.90;99.90;;;;;;6127245;23;20017;-84
2023/04/14 05:46:40;;;;;;;10.98;6.03;;;3.90;99.90;;;;;;6153021;23;20013;-84
2023/04/14 05:49:06;;;;;;;13.40;6.32;;;4.00;99.90;;;;;;6127291;23;20033;-84
2023/04/14 05:51:31;;;;;;;9.27;5.45;;;4.00;99.90;;;;;;6153481;23;20010;-84
2023/04/14 05:53:57;;;;;;;8.90;5.55;;;4.10;99.90;;;;;;6126074;23;20459;-84
2023/04/14 05:56:23;;;;;;;14.65;6.65;;;4.10;99.90;;;;;;6126954;23;20033;-84
2023/04/14 05:58:50;;;;;;;9.25;5.88;;;4.10;99.90;;;;;;6153549;23;20010;-82
2023/04/14 06:01:16;;;;;;;14.68;6.95;;;4.10;99.90;;;;;;6102487;23;20388;-84
2023/04/14 06:03:41;;;;;;;13.15;6.32;;;4.40;99.90;;;;;;6102666;23;20014;-84
2023/04/14 06:06:07;;;;;;;12.15;6.40;;;4.90;99.90;;;;;;6127343;23;20018;-84
2023/04/14 06:08:33;;;;;;;12.85;7.22;;;5.30;99.90;;;;;;6152417;23;20021;-84
2023/04/14 06:10:58;;;;;;;11.68;7.30;;;6.20;99.90;;;;;;6127181;23;20020;-84
2023/04/14 06:13:24;;;;;;;14.35;7.30;;;6.90;99.90;;;;;;6127140;23;20064;-84
2023/04/14 06:15:50;;;;;;;11.10;5.38;;;7.40;99.90;;;;;;6126838;23;20515;-84
2023/04/14 06:18:16;;;;;;;10.43;5.43;;;8.00;99.90;;;;;;6153947;23;20005;-83
2023/04/14 06:20:41;;;;;;;10.98;5.13;;;8.50;99.90;;;;;;6127215;23;20075;-84
2023/04/14 06:23:07;;;;;;;14.30;5.68;;;8.60;99.90;;;;;;6152563;23;20314;-84
2023/04/14 06:25:35;;;;;;;9.63;5.00;;;9.40;99.90;;;;;;6126537;23;20449;-84
2023/04/14 06:28:04;;;;;;;11.18;4.88;;;10.10;99.90;;;;;;6126458;23;20121;-84
2023/04/14 06:30:33;;;;;;;8.15;4.35;;;10.50;99.90;;;;;;6126546;23;20453;-84
2023/04/14 06:33:03;;;;;;;11.25;5.10;;;10.70;99.90;;;;;;6126444;23;20016;-84
2023/04/14 06:35:30;;;;;;;9.13;5.20;;;11.40;99.90;;;;;;6102033;23;20356;-84
2023/04/14 06:37:56;;;;;;;12.15;5.20;;;12.30;99.90;;;;;;6152267;23;20006;-84
2023/04/14 06:40:21;;;;;;;7.53;4.18;;;12.80;99.90;;;;;;6152674;23;20096;-85
2023/04/14 06:42:47;;;;;;;11.40;4.18;;;13.40;99.90;;;;;;6126428;23;20006;-89
2023/04/14 06:45:12;;;;;;;7.18;3.40;;;13.80;99.90;;;;;;6126552;23;20017;-83
2023/04/14 06:47:38;;;;;;;9.95;3.67;;;13.80;99.90;;;;;;6152862;23;20016;-84
2023/04/14 06:50:04;;;;;;;9.15;3.38;;;13.40;99.90;;;;;;6152657;23;20018;-83
2023/04/14 06:52:30;;;;;;;11.82;3.78;;;12.70;99.90;;;;;;6152533;23;20339;-83
2023/04/14 06:54:55;;;;;;;11.77;3.55;;;12.10;99.90;;;;;;6152732;23;20156;-83
2023/04/14 06:57:21;;;;;;;10.75;3.45;;;11.70;99.90;;;;;;6152878;23;20448;-83
2023/04/14 06:59:46;;;;;;;15.30;3.30;;;11.20;99.90;;;;;;6126474;23;20010;-83
2023/04/14 07:02:12;;;;;;;9.23;2.80;;;11.00;99.90;;;;;;6152514;23;20016;-83
2023/04/14 07:04:37;;;;;;;13.48;3.00;;;10.90;99.90;;;;;;6126882;23;20014;-83
2023/04/14 07:07:03;;;;;;;12.13;3.65;;;10.80;99.90;;;;;;6151966;23;20557;-84
2023/04/14 07:09:29;;;;;;;14.20;3.40;;;10.60;99.90;;;;;;6152621;23;20033;-84
2023/04/14 07:11:56;;;;;;;11.50;2.83;;;10.60;99.90;;;;;;6126171;23;20348;-83
2023/04/14 07:14:22;;;;;;;11.35;3.58;;;10.50;99.90;;;;;;6101729;23;20016;-84
2023/04/14 07:16:52;;;;;;;11.40;3.03;;;10.50;99.90;;;;;;6152500;23;20009;-84
2023/04/14 07:19:18;;;;;;;11.68;3.15;;;10.50;99.90;;;;;;6126119;23;20014;-83
2023/04/14 07:21:45;;;;;;;14.63;3.30;;;10.40;99.90;;;;;;6101135;23;20017;-83
2023/04/14 07:24:11;;;;;;;12.35;3.45;;;10.50;99.90;;;;;;6126191;23;20062;-83
2023/04/14 07:26:36;;;;;;;10.48;3.03;;;10.50;99.90;;;;;;6126055;23;20377;-84
2023/04/14 07:29:02;;;;;;;10.60;3.05;;;10.50;99.90;;;;;;6103465;23;20028;-83
2023/04/14 07:31:30;;;;;;;17.67;3.40;;;10.50;99.90;;;;;;6128063;23;20056;-83
2023/04/14 07:33:55;;;;;;;11.02;3.17;;;10.60;99.90;;;;;;6153830;23;20445;-83
2023/04/14 07:36:21;;;;;;;11.40;3.00;;;10.60;99.90;;;;;;6127621;23;20056;-83
2023/04/14 07:38:49;;;;;;;12.88;3.03;;;10.70;99.90;;;;;;6127992;23;20045;-83
2023/04/14 07:41:15;;;;;;;12.13;2.80;;;10.70;99.90;;;;;;6103390;23;20029;-83
2023/04/14 07:43:40;;;;;;;10.48;3.22;;;10.80;99.90;;;;;;6128449;23;20433;-84
2023/04/14 07:46:06;;;;;;;15.43;2.97;;;10.80;99.90;;;;;;6103197;23;20352;-83
2023/04/14 07:48:34;;;;;;;10.98;2.75;;;10.80;99.90;;;;;;6103331;23;20330;-83
2023/04/14 07:51:00;;;;;;;11.13;2.80;;;10.90;99.90;;;;;;6127531;23;20075;-83
2023/04/14 07:53:26;;;;;;;11.85;2.55;;;10.90;99.90;;;;;;6154293;23;20425;-83
2023/04/14 07:55:51;;;;;;;10.00;3.08;;;10.90;99.90;;;;;;6127589;23;20452;-83
2023/04/14 07:58:17;;;;;;;10.88;2.65;;;11.00;99.90;;;;;;6103105;23;20013;-82
2023/04/14 08:00:42;;;;;;;12.52;2.70;;;11.00;99.90;;;;;;6153684;23;20036;-83
2023/04/14 08:03:08;;;;;;;12.13;2.53;;;11.00;99.90;;;;;;6127548;23;20044;-83
2023/04/14 08:05:34;;;;;;;11.38;3.40;;;11.20;99.90;;;;;;6126916;23;20048;-83
2023/04/14 08:08:00;;;;;;;11.55;2.70;;;11.20;99.90;;;;;;6127964;23;20009;-84
2023/04/14 08:10:26;;;;;;;12.07;2.90;;;11.20;99.90;;;;;;6127997;23;20031;-83
2023/04/14 08:12:52;;;;;;;13.73;3.13;;;11.30;99.90;;;;;;6103169;23;20565;-83
2023/04/14 08:15:18;;;;;;;13.55;2.65;;;11.30;99.90;;;;;;6127729;23;20021;-83
2023/04/14 08:17:43;;;;;;;14.23;2.83;;;11.40;99.90;;;;;;6127559;23;20061;-83
2023/04/14 08:20:09;;;;;;;13.20;2.88;;;11.40;99.90;;;;;;6127292;23;20017;-83
2023/04/14 08:22:35;;;;;;;10.25;2.70;;;11.60;99.90;;;;;;6154506;23;20009;-83
2023/04/14 08:25:01;;;;;;;10.80;2.58;;;12.00;99.90;;;;;;6127768;23;20016;-83
2023/04/14 08:27:27;;;;;;;11.02;2.65;;;13.00;99.90;;;;;;6128259;23;20010;-83
2023/04/14 08:29:53;;;;;;;12.10;3.10;;;14.30;99.90;;;;;;6127641;23;20061;-82
2023/04/14 08:32:18;;;;;;;10.25;2.90;;;14.90;99.90;;;;;;6103573;23;20010;-82
2023/04/14 08:34:44;;;;;;;9.45;2.53;;;15.70;99.90;;;;;;6127377;23;20092;-82
2023/04/14 08:37:10;;;;;;;14.30;3.08;;;16.40;99.90;;;;;;6128049;23;20064;-82
2023/04/14 08:39:35;;;;;;;13.75;3.03;;;16.30;98.30;;;;;;6127477;23;20013;-82
2023/04/14 08:42:01;;;;;;;10.35;2.97;;;16.70;99.70;;;;;;6154129;23;20014;-83
2023/04/14 08:44:28;;;;;;;12.55;2.88;;;16.80;99.90;;;;;;6127648;23;20017;-82
2023/04/14 08:46:54;;;;;;;13.10;2.72;;;17.10;99.90;;;;;;6127967;23;20115;-82
2023/04/14 08:49:51;;;;;;;9.35;2.90;;;17.10;99.90;;;;;;6102250;23;20088;-82
2023/04/14 08:52:22;;;;;;;12.80;2.65;;;16.70;99.10;;;;;;6152041;23;20019;-81
2023/04/14 08:54:49;;;;;;;12.02;2.75;;;16.50;99.50;;;;;;6122251;23;20060;-81
2023/04/14 08:57:18;;;;;;;11.13;2.75;;;15.80;99.40;;;;;;6122381;23;20495;-82
2023/04/14 08:59:44;;;;;;;12.60;3.45;;;15.40;99.90;;;;;;6122891;23;20013;-82
2023/04/14 09:02:11;;;;;;;9.35;2.38;;;15.40;99.90;;;;;;6121901;23;20445;-82
2023/04/14 09:04:38;;;;;;;9.68;2.58;;;14.90;99.90;;;;;;6123121;23;20010;-82
2023/04/14 09:07:04;;;;;;;9.07;2.42;;;14.50;99.90;;;;;;6123038;23;20014;-82
2023/04/14 09:09:30;;;;;;;11.40;3.25;;;14.40;99.90;;;;;;6122471;23;20077;-81
2023/04/14 09:11:57;;;;;;;11.60;2.40;;;14.20;99.90;;;;;;6124474;23;20069;-82
2023/04/14 09:14:23;;;;;;;12.88;2.85;;;13.80;99.90;;;;;;6124659;23;20014;-81
2023/04/14 09:16:52;;;;;;;11.45;2.60;;;13.80;99.90;;;;;;6124051;23;20093;-84
2023/04/14 09:19:19;;;;;;;12.93;3.20;;;13.70;99.90;;;;;;6125079;23;20084;-83
2023/04/14 09:21:45;;;;;;;9.50;2.97;;;13.80;99.90;;;;;;6122581;23;20341;-82
2023/04/14 09:24:11;;;;;;;9.75;2.72;;;13.70;99.90;;;;;;6124498;23;20014;-82
2023/04/14 09:26:37;;;;;;;8.98;2.85;;;14.10;99.90;;;;;;6124334;23;20021;-82
2023/04/14 09:29:02;;;;;;;10.73;3.40;;;14.20;99.90;;;;;;6124770;23;20433;-82
2023/04/14 09:31:31;;;;;;;13.30;3.30;;;14.40;99.90;;;;;;6123908;23;20049;-81
2023/04/14 09:33:57;;;;;;;8.57;2.63;;;14.80;99.90;;;;;;6123918;23;20041;-82
2023/04/14 09:36:25;;;;;;;12.73;3.58;;;15.40;99.90;;;;;;6122014;23;20018;-81
2023/04/14 09:38:51;;;;;;;9.95;2.78;;;15.60;98.20;;;;;;6122281;23;20033;-83
2023/04/14 09:41:21;;;;;;;10.93;3.60;;;15.20;98.80;;;;;;6123736;23;20013;-83
2023/04/14 09:43:47;;;;;;;14.35;2.95;;;14.90;99.90;;;;;;6123838;23;20065;-83
2023/04/14 09:46:14;;;;;;;10.68;3.30;;;14.50;99.90;;;;;;6121308;23;20014;-83
2023/04/14 09:48:55;;;;;;;9.07;3.08;;;14.20;99.90;;;;;;6123144;23;20014;-83
2023/04/14 09:51:25;;;;;;;10.32;2.90;;;13.70;99.90;;;;;;6124970;23;20054;-83
2023/04/14 09:53:52;;;;;;;8.50;2.65;;;13.60;99.90;;;;;;6101307;23;20041;-83
2023/04/14 09:56:17;;;;;;;9.32;2.45;;;13.50;99.90;;;;;;6155105;23;20013;-83
2023/04/14 09:58:44;;;;;;;7.10;2.60;;;13.20;99.90;;;;;;6128251;23;20006;-83
2023/04/14 10:01:12;;;;;;;14.35;3.63;;;13.30;99.90;;;;;;6102381;23;20013;-84
2023/04/14 10:03:42;;;;;;;12.68;3.17;;;13.40;99.90;;;;;;6154139;23;20109;-83
2023/04/14 10:06:12;;;;;;;10.35;2.40;;;13.50;99.90;;;;;;6128561;23;20096;-83
2023/04/14 10:08:40;;;;;;;9.73;2.55;;;13.30;99.90;;;;;;6154170;23;20016;-83
2023/04/14 10:11:26;;;;;;;9.15;2.90;;;13.10;99.90;;;;;;6128527;23;20014;-83
2023/04/14 10:14:03;;;;;;;10.48;2.88;;;13.10;99.90;;;;;;6127459;23;20012;-84
2023/04/14 10:16:30;;;;;;;8.80;2.80;;;13.30;99.90;;;;;;6127571;23;20021;-83
2023/04/14 10:18:57;;;;;;;11.48;2.85;;;13.20;99.90;;;;;;6128981;23;20044;-83
2023/04/14 10:21:23;;;;;;;9.40;3.28;;;13.20;99.90;;;;;;6128264;23;20309;-83
2023/04/14 10:23:49;;;;;;;13.25;3.47;;;13.40;99.90;;;;;;6128592;23;20021;-84
2023/04/14 10:26:16;;;;;;;10.60;3.20;;;13.40;99.90;;;;;;6128743;23;20319;-82
2023/04/14 10:28:48;;;;;;;8.07;2.83;;;13.30;99.90;;;;;;6128004;23;20017;-82
2023/04/14 10:31:28;;;;;;;11.43;3.50;;;13.30;99.90;;;;;;6127923;23;20021;-83
2023/04/14 10:33:54;;;;;;;10.63;2.97;;;13.50;99.90;;;;;;6128019;23;20261;-83
2023/04/14 10:36:24;;;;;;;11.93;3.55;;;13.70;99.90;;;;;;6103179;23;20021;-83
2023/04/14 10:39:04;;;;;;;9.00;3.20;;;13.80;99.90;;;;;;6128004;23;20013;-83
2023/04/14 10:41:48;;;;;;;10.80;3.22;;;13.90;99.90;;;;;;6128537;23;20096;-83
2023/04/14 10:44:34;;;;;;;11.55;3.25;;;13.90;99.90;;;;;;6103763;23;20017;-84
2023/04/14 10:47:04;;;;;;;12.15;2.88;;;14.00;99.50;;;;;;6104193;23;20013;-84
2023/04/14 10:49:31;;;;;;;12.88;3.50;;;14.00;99.90;;;;;;6128434;23;20014;-82
2023/04/14 10:52:24;;;;;;;11.32;3.00;;;13.90;99.40;;;;;;6127398;23;20013;-82
2023/04/14 10:55:06;;;;;;;14.02;3.38;;;13.90;99.90;;;;;;6127218;23;20341;-86
2023/04/14 10:57:44;;;;;;;13.60;3.58;;;14.00;99.90;;;;;;6153928;23;20013;-83
2023/04/14 11:00:23;;;;;;;11.43;3.53;;;14.20;99.90;;;;;;6153792;23;20044;-83
2023/04/14 11:03:11;;;;;;;11.75;3.75;;;14.30;99.90;;;;;;6104151;23;20013;-83
2023/04/14 11:05:50;;;;;;;10.35;3.63;;;14.30;99.90;;;;;;6156188;23;20013;-83
2023/04/14 11:08:25;;;;;;;13.30;3.35;;;14.30;99.90;;;;;;6155873;23;20014;-82
2023/04/14 11:11:00;;;;;;;13.48;3.20;;;14.60;99.90;;;;;;6105328;23;20381;-83
2023/04/14 11:13:27;;;;;;;11.48;2.60;;;14.50;99.90;;;;;;6104833;23;20010;-82
2023/04/14 11:16:06;;;;;;;9.30;3.15;;;14.40;99.90;;;;;;6155880;23;20020;-83
2023/04/14 11:18:36;;;;;;;10.55;2.47;;;14.60;99.70;;;;;;6155824;23;20005;-83
2023/04/14 11:21:04;;;;;;;8.13;2.63;;;14.90;99.90;;;;;;6129093;23;20045;-83
2023/04/14 11:23:31;;;;;;;8.73;2.83;;;14.90;97.70;;;;;;6129410;23;20010;-83
2023/04/14 11:25:57;;;;;;;8.98;2.92;;;14.80;99.80;;;;;;6104661;23;20076;-83
2023/04/14 11:28:30;;;;;;;10.27;3.10;;;14.90;99.90;;;;;;6128323;23;20013;-83
2023/04/14 11:30:57;;;;;;;10.15;3.15;;;15.00;98.80;;;;;;6104831;23;20056;-83
2023/04/14 11:33:33;;;;;;;8.43;2.78;;;15.10;99.10;;;;;;6104677;23;20097;-83
2023/04/14 11:36:00;;;;;;;8.30;2.53;;;15.40;98.60;;;;;;6104250;23;20048;-83
2023/04/14 11:38:26;;;;;;;8.60;2.75;;;15.40;96.50;;;;;;6128607;23;20152;-83
2023/04/14 11:40:53;;;;;;;8.68;2.53;;;15.40;97.10;;;;;;6104405;23;20037;-83
2023/04/14 11:43:20;;;;;;;9.55;2.92;;;15.60;95.30;;;;;;6128374;23;20043;-83
2023/04/14 11:45:47;;;;;;;9.35;2.75;;;15.50;96.20;;;;;;6129036;23;20361;-83
2023/04/14 11:48:15;;;;;;;10.80;2.78;;;15.40;95.80;;;;;;6128690;23;20031;-84
2023/04/14 11:50:43;;;;;;;6.85;2.83;;;15.30;96.50;;;;;;6104336;23;20013;-83
2023/04/14 11:53:13;;;;;;;7.65;2.95;;;15.00;95.80;;;;;;6129078;23;20021;-82
2023/04/14 11:55:43;;;;;;;13.90;3.67;;;14.90;96.80;;;;;;6098533;23;20093;-82
2023/04/14 11:58:09;;;;;;;10.75;3.30;;;14.80;98.50;;;;;;6122980;23;20081;-81
2023/04/14 12:00:35;;;;;;;7.97;2.60;;;14.80;99.80;;;;;;6098730;23;20014;-81
2023/04/14 12:03:02;;;;;;;9.18;2.80;;;14.70;97.60;;;;;;6123056;23;20041;-81
2023/04/14 12:05:32;;;;;;;11.45;3.13;;;14.60;97.30;;;;;;6123544;23;20010;-81
2023/04/14 12:08:03;;;;;;;11.98;2.80;;;14.60;97.30;;;;;;6122991;23;20016;-81
2023/04/14 12:10:29;;;;;;;10.43;3.05;;;14.40;95.80;;;;;;6123010;23;20014;-81
2023/04/14 12:13:01;;;;;;;11.13;3.13;;;14.40;96.40;;;;;;6122080;23;20009;-81
2023/04/14 12:15:32;;;;;;;7.03;2.90;;;14.40;97.20;;;;;;6122891;23;20056;-82
2023/04/14 12:18:01;;;;;;;8.15;3.03;;;14.50;97.80;;;;;;6124923;23;20045;-81
2023/04/14 12:20:27;;;;;;;9.85;2.92;;;14.50;98.60;;;;;;6099427;23;20021;-83
2023/04/14 12:23:03;;;;;;;12.40;2.83;;;14.50;98.70;;;;;;6126493;23;20017;-83
2023/04/14 12:25:32;;;;;;;11.27;2.92;;;14.50;97.30;;;;;;6125163;23;20024;-84
2023/04/14 12:28:01;;;;;;;8.63;2.53;;;14.70;97.40;;;;;;6125585;23;20022;-84
2023/04/14 12:30:27;;;;;;;8.52;2.97;;;14.90;97.50;;;;;;6125277;23;20056;-84
2023/04/14 12:32:53;;;;;;;8.60;2.92;;;14.90;96.70;;;;;;6125053;23;20432;-84
2023/04/14 12:35:22;;;;;;;12.43;2.88;;;14.80;96.30;;;;;;6125382;23;20025;-84
2023/04/14 12:37:49;;;;;;;8.98;3.15;;;14.80;96.70;;;;;;6100641;23;20018;-83
2023/04/14 12:40:15;;;;;;;9.60;3.10;;;14.70;96.10;;;;;;6124942;23;20014;-84
2023/04/14 12:42:46;;;;;;;7.22;2.80;;;14.60;96.30;;;;;;6127540;23;20010;-84
2023/04/14 12:45:12;;;;;;;9.15;2.92;;;14.50;96.40;;;;;;6125203;23;20014;-84
2023/04/14 12:47:37;;;;;;;9.18;2.50;;;14.50;98.30;;;;;;6125238;23;20014;-84
2023/04/14 12:50:23;;;;;;;7.18;2.78;;;14.60;96.60;;;;;;6100787;23;20024;-84
2023/04/14 12:52:49;;;;;;;8.70;2.78;;;14.60;95.50;;;;;;6124827;23;20041;-84